
Distance (Route):
Temperature : -49.0°C
Humidity : 1.0%
Pressure : 34.6hPa| Receiver | Frames | First received | Last received |
|---|---|---|---|
| DL1XH-west | 75 | 2026-09-02 12:40:28 | 2026-09-02 13:04:26 |
| DL1XH1-15 | 55 | 2026-09-02 12:41:30 | 2026-09-02 13:04:29 |
| DJ2DS-15 | 8 | 2026-09-02 12:46:04 | 2026-09-02 13:05:19 |
| Receiver | Date | Latitude | Longitude | Direction | Speed | Altitude | Climb | Temperature | Humidity | Pressure | Voltage | Killtimer | Uptime | BKT | XDATA |
|---|---|---|---|---|---|---|---|---|---|---|---|---|---|---|---|
| DJ2DS-15 | 2026-09-02 13:05:19 | 58.87023 | 7.25784 | 128° | 11km/h | 23425m | -55.5m/s | -49.0°C | 1.0% | 34.6hPa | 2.5V | 00:00:00 | 00:00:00 | 00:00:00 | |
| DL1XH1-15 | 2026-09-02 13:04:29 | 58.87080 | 7.25550 | 37° | 2km/h | 26820m | -69.7m/s | -47°C | 3.5% | 20.7hPa | 2.5V | 08:30:00 | 02:25:18 | 00:00:00 | |
| DL1XH-west | 2026-09-02 13:04:26 | 58.87079 | 7.25550 | 173° | 2km/h | 26682m | -68.8m/s | -47.2°C | 0.6% | 21.1hPa | 2.6V | 18:12:15 | 02:25:20 | 00:00:00 | |
| DL1XH1-15 | 2026-09-02 13:04:19 | 58.87077 | 7.25519 | 57° | 13km/h | 27613m | -74.7m/s | -45.9°C | 3.4% | 18.4hPa | 2.5V | 08:30:00 | 02:25:07 | 00:00:00 | |
| DL1XH-west | 2026-09-02 13:04:15 | 58.87078 | 7.25524 | 54° | 11km/h | 27538m | -75.1m/s | -46.3°C | 0.5% | 18.6hPa | 2.5V | 18:12:15 | 02:25:08 | 00:00:00 | |
| DL1XH1-15 | 2026-09-02 13:04:08 | 58.87060 | 7.25447 | 74° | 20km/h | 28301m | -79.3m/s | -44°C | 2.9% | 16.5hPa | 2.5V | 08:30:00 | 02:24:58 | 00:00:00 | |
| DL1XH-west | 2026-09-02 13:04:03 | 58.87058 | 7.25438 | 73° | 20km/h | 28379m | -78.6m/s | -43.9°C | 0.1% | 16.4hPa | 2.5V | 18:12:15 | 02:24:57 | 00:00:00 | |
| DL1XH1-15 | 2026-09-02 13:03:58 | 58.87048 | 7.25375 | 69° | 15km/h | 29107m | -83.6m/s | -43.3°C | 2.9% | 14.7hPa | 2.5V | 08:30:00 | 02:24:48 | 00:00:00 | |
| DL1XH-west | 2026-09-02 13:03:52 | 58.87045 | 7.25362 | 69° | 15km/h | 29272m | -83m/s | -43.2°C | 0.1% | 14.3hPa | 2.6V | 18:12:15 | 02:24:46 | 00:00:00 | |
| DL1XH1-15 | 2026-09-02 13:03:48 | 58.87035 | 7.25296 | 80° | 18km/h | 29920m | -81.3m/s | -43.1°C | 3% | 13hPa | 2.5V | 08:30:00 | 02:24:38 | 00:00:00 | |
| DL1XH-west | 2026-09-02 13:03:41 | 58.87034 | 7.25269 | 92° | 20km/h | 30160m | -79.9m/s | -41.9°C | 0% | 12.6hPa | 2.6V | 18:12:15 | 02:24:35 | 00:00:00 | |
| DL1XH1-15 | 2026-09-02 13:03:38 | 58.87037 | 7.25213 | 103° | 15km/h | 30671m | -64.4m/s | -40.3°C | 2.4% | 11.6hPa | 2.6V | 08:30:00 | 02:24:28 | 00:00:00 | |
| DL1XH-west | 2026-09-02 13:03:30 | 58.87041 | 7.25190 | 106° | 11km/h | 30909m | -49.7m/s | -40.3°C | 0% | 11.3hPa | 2.6V | 18:12:15 | 02:24:24 | 00:00:00 | |
| DL1XH1-15 | 2026-09-02 13:03:28 | 58.87033 | 7.25147 | 57° | 20km/h | 31105m | -11m/s | -40.4°C | 2.4% | 10.9hPa | 2.6V | 08:30:00 | 02:24:18 | 00:00:00 | |
| DL1XH-west | 2026-09-02 13:03:19 | 58.87019 | 7.25113 | 47° | 11km/h | 31091m | 5.2m/s | -40.5°C | 0% | 10.9hPa | 2.6V | 18:12:15 | 02:24:13 | 00:00:00 | |
| DL1XH1-15 | 2026-09-02 13:03:18 | 58.87014 | 7.25082 | 75° | 20km/h | 31065m | 5.1m/s | -40.5°C | 2.4% | 11hPa | 2.6V | 08:30:00 | 02:24:08 | 00:00:00 | |
| DL1XH1-15 | 2026-09-02 13:03:08 | 58.87027 | 7.25010 | 98° | 26km/h | 31007m | 5.5m/s | -40.5°C | 2.4% | 11hPa | 2.6V | 08:30:00 | 02:23:58 | 00:00:00 | |
| DL1XH-west | 2026-09-02 13:03:02 | 58.87029 | 7.24988 | 110° | 22km/h | 30996m | 4.3m/s | -40.5°C | 0% | 11.1hPa | 2.7V | 18:12:15 | 02:23:56 | 00:00:00 | |
| DL1XH1-15 | 2026-09-02 13:02:58 | 58.87041 | 7.24936 | 140° | 20km/h | 30952m | 4.3m/s | -40.6°C | 2.4% | 11.1hPa | 2.6V | 08:30:00 | 02:23:48 | 00:00:00 | |
| DL1XH-west | 2026-09-02 13:02:52 | 58.87048 | 7.24920 | 117° | 22km/h | 30942m | 6.2m/s | -40.7°C | 0% | 11.2hPa | 2.7V | 18:12:15 | 02:23:46 | 00:00:00 | |
| DL1XH1-15 | 2026-09-02 13:02:48 | 58.87044 | 7.24855 | 82° | 11km/h | 30895m | 5.4m/s | -41°C | 2.5% | 11.2hPa | 2.6V | 08:30:00 | 02:23:38 | 00:00:00 | |
| DL1XH-west | 2026-09-02 13:02:41 | 58.87040 | 7.24832 | 77° | 20km/h | 30879m | 5.2m/s | -41°C | 0% | 11.3hPa | 2.6V | 18:12:15 | 02:23:35 | 00:00:00 | |
| DL1XH1-15 | 2026-09-02 13:02:38 | 58.87046 | 7.24769 | 90° | 15km/h | 30838m | 5m/s | -41°C | 2.4% | 11.3hPa | 2.6V | 08:30:00 | 02:23:28 | 00:00:00 | |
| DL1XH-west | 2026-09-02 13:02:29 | 58.87051 | 7.24739 | 111° | 18km/h | 30811m | 4.9m/s | -41°C | 0% | 11.4hPa | 2.5V | 18:12:15 | 02:23:23 | 00:00:00 | |
| DL1XH-west | 2026-09-02 13:02:14 | 58.87082 | 7.24577 | 108° | 24km/h | 30727m | 4.7m/s | -41.6°C | 0% | 11.5hPa | 2.6V | 18:12:15 | 02:23:08 | 00:00:00 | |
| DL1XH1-15 | 2026-09-02 13:02:03 | 58.87090 | 7.24412 | 90° | 22km/h | 30641m | 6m/s | -42°C | 2.5% | 11.7hPa | 2.5V | 08:30:00 | 02:22:52 | 00:00:00 | |
| DL1XH-west | 2026-09-02 13:02:03 | 58.87096 | 7.24455 | 74° | 18km/h | 30663m | 5.3m/s | -41.9°C | 0% | 11.6hPa | 2.6V | 18:12:15 | 02:22:56 | 00:00:00 | |
| DL1XH1-15 | 2026-09-02 13:01:53 | 58.87108 | 7.24331 | 74° | 18km/h | 30585m | 6.5m/s | -42.5°C | 2.7% | 11.7hPa | 2.6V | 08:30:00 | 02:22:42 | 00:00:00 | |
| DL1XH-west | 2026-09-02 13:01:53 | 58.87104 | 7.24354 | 130° | 18km/h | 30606m | 6.2m/s | -42.3°C | 0% | 11.7hPa | 2.6V | 18:12:15 | 02:22:46 | 00:00:00 | |
| DL1XH-west | 2026-09-02 13:01:33 | 58.87125 | 7.24160 | 83° | 15km/h | 30505m | 4.7m/s | -42.9°C | 0% | 11.9hPa | 2.6V | 18:12:15 | 02:22:27 | 00:00:00 | |
| DL1XH1-15 | 2026-09-02 13:01:28 | 58.87134 | 7.24089 | 125° | 16km/h | 30461m | 4.4m/s | -43.4°C | 2.7% | 11.9hPa | 2.6V | 08:30:00 | 02:22:19 | 00:00:00 | |
| DL1XH-west | 2026-09-02 13:01:19 | 58.87125 | 7.24053 | 14° | 16km/h | 30428m | 4.3m/s | -43.7°C | 0% | 12hPa | 2.6V | 18:12:15 | 02:22:13 | 00:00:00 | |
| DL1XH1-15 | 2026-09-02 13:01:18 | 58.87115 | 7.24034 | 88° | 20km/h | 30407m | 5.5m/s | -43.6°C | 2.8% | 12.1hPa | 2.6V | 08:30:00 | 02:22:09 | 00:00:00 | |
| DL1XH-west | 2026-09-02 13:01:09 | 58.87119 | 7.23967 | 79° | 24km/h | 30362m | 4.9m/s | -43.8°C | 0% | 12.1hPa | 2.6V | 18:12:15 | 02:22:01 | 00:00:00 | |
| DL1XH1-15 | 2026-09-02 13:01:08 | 58.87117 | 7.23945 | 83° | 22km/h | 30351m | 6m/s | -43.8°C | 2.8% | 12.2hPa | 2.6V | 08:30:00 | 02:21:59 | 00:00:00 | |
| DL1XH1-15 | 2026-09-02 13:00:57 | 58.87123 | 7.23821 | 71° | 20km/h | 30297m | 5.6m/s | -44°C | 2.8% | 12.2hPa | 2.6V | 08:30:00 | 02:21:49 | 00:00:00 | |
| DL1XH-west | 2026-09-02 13:00:57 | 58.87126 | 7.23843 | 81° | 27km/h | 30310m | 6m/s | -43.9°C | 0% | 12.2hPa | 2.6V | 18:12:15 | 02:21:51 | 00:00:00 | |
| DL1XH1-15 | 2026-09-02 13:00:47 | 58.87117 | 7.23685 | 65° | 24km/h | 30243m | 6m/s | -44°C | 2.8% | 12.4hPa | 2.6V | 08:30:00 | 02:21:39 | 00:00:00 | |
| DL1XH-west | 2026-09-02 13:00:45 | 58.87117 | 7.23685 | 65° | 24km/h | 30243m | 6m/s | -44°C | 0% | 0hPa | 2.6V | 18:12:15 | 02:21:39 | 00:00:00 | |
| DL1XH1-15 | 2026-09-02 13:00:37 | 58.87104 | 7.23585 | 64° | 31km/h | 30187m | 4.8m/s | -44.3°C | 2.8% | 12.4hPa | 2.6V | 08:30:00 | 02:21:29 | 00:00:00 | |
| DL1XH-west | 2026-09-02 13:00:36 | 58.87105 | 7.23585 | 64° | 31km/h | 30187m | 4.8m/s | -44.3°C | 0% | 0hPa | 2.6V | 18:12:15 | 02:21:29 | 00:00:00 | |
| DJ2DS-15 | 2026-09-02 13:00:31 | 58.87083 | 7.23527 | 48° | 26km/h | 30159m | 5.1m/s | -44.4°C | 0.8% | 12.5hPa | 2.6V | 00:00:00 | 00:00:00 | 00:00:00 | |
| DL1XH1-15 | 2026-09-02 13:00:26 | 58.87067 | 7.23479 | 85° | 18km/h | 30131m | 6.8m/s | -44.6°C | 2.8% | 12.6hPa | 2.6V | 08:30:00 | 02:21:19 | 00:00:00 | |
| DL1XH-west | 2026-09-02 13:00:25 | 58.87067 | 7.23470 | 107° | 18km/h | 30124m | 6.2m/s | -44.6°C | 0% | 0hPa | 2.6V | 18:12:15 | 02:21:18 | 00:00:00 | |
| DL1XH1-15 | 2026-09-02 13:00:20 | 58.87042 | 7.23391 | 26° | 24km/h | 30073m | 4.9m/s | -45.1°C | 3% | 12.7hPa | 2.6V | 08:30:00 | 02:21:09 | 00:00:00 | |
| DL1XH-west | 2026-09-02 13:00:13 | 58.87032 | 7.23380 | 39° | 22km/h | 30062m | 6.5m/s | -45.3°C | 0% | 0hPa | 2.6V | 18:12:15 | 02:21:07 | 00:00:00 | |
| DL1XH1-15 | 2026-09-02 13:00:10 | 58.87009 | 7.23326 | 18° | 26km/h | 30009m | 5m/s | -45.6°C | 3% | 12.8hPa | 2.6V | 08:30:00 | 02:20:58 | 00:00:00 | |
| DL1XH-west | 2026-09-02 13:00:03 | 58.87003 | 7.23322 | 11° | 26km/h | 30004m | 6.4m/s | -45.7°C | 0% | 0hPa | 2.6V | 18:12:15 | 02:20:57 | 00:00:00 | |
| DL1XH1-15 | 2026-09-02 12:59:59 | 58.86980 | 7.23287 | 92° | 11km/h | 29950m | 5.2m/s | -45.4°C | 3.1% | 12.9hPa | 2.6V | 08:30:00 | 02:20:48 | 00:00:00 | |
| DL1XH-west | 2026-09-02 12:59:52 | 58.86979 | 7.23277 | 58° | 13km/h | 29938m | 6.8m/s | -45.4°C | 0% | 0hPa | 2.6V | 18:12:15 | 02:20:46 | 00:00:00 | |
| DL1XH1-15 | 2026-09-02 12:59:49 | 58.86964 | 7.23235 | 95° | 15km/h | 29891m | 6.5m/s | -45.4°C | 3% | 13hPa | 2.6V | 08:30:00 | 02:20:38 | 00:00:00 | |
| DL1XH-west | 2026-09-02 12:59:41 | 58.86965 | 7.23212 | 99° | 15km/h | 29873m | 6.6m/s | -45.5°C | 0% | 0hPa | 2.6V | 18:12:15 | 02:20:35 | 00:00:00 | |
| DL1XH1-15 | 2026-09-02 12:59:39 | 58.86955 | 7.23179 | 66° | 13km/h | 29830m | 6.5m/s | -45.4°C | 3% | 13.1hPa | 2.6V | 08:30:00 | 02:20:28 | 00:00:00 | |
| DL1XH-west | 2026-09-02 12:59:30 | 58.86960 | 7.23146 | 108° | 26km/h | 29806m | 6.9m/s | -45.2°C | 0% | 0hPa | 2.6V | 18:12:15 | 02:20:24 | 00:00:00 | |
| DL1XH1-15 | 2026-09-02 12:59:28 | 58.86961 | 7.23085 | 71° | 11km/h | 29769m | 5.4m/s | -45.1°C | 3% | 13.2hPa | 2.5V | 08:30:00 | 02:20:18 | 00:00:00 | |
| DL1XH-west | 2026-09-02 12:59:19 | 58.86953 | 7.23047 | 82° | 20km/h | 29739m | 6.3m/s | -45.1°C | 0% | 0hPa | 2.6V | 18:12:15 | 02:20:13 | 00:00:00 | |
| DL1XH1-15 | 2026-09-02 12:59:18 | 58.86954 | 7.23000 | 80° | 22km/h | 29709m | 5.7m/s | -45.2°C | 3% | 13.4hPa | 2.6V | 08:30:00 | 02:20:08 | 00:00:00 | |
| DL1XH1-15 | 2026-09-02 12:59:08 | 58.86926 | 7.22932 | 64° | 18km/h | 29649m | 6.8m/s | -45.5°C | 3% | 13.5hPa | 2.6V | 08:30:00 | 02:19:58 | 00:00:00 | |
| DL1XH-west | 2026-09-02 12:59:01 | 58.86917 | 7.22908 | 45° | 18km/h | 29627m | 6.3m/s | -45.5°C | 0% | 0hPa | 2.6V | 18:12:15 | 02:19:54 | 00:00:00 | |
| DL1XH1-15 | 2026-09-02 12:58:58 | 58.86889 | 7.22860 | 20° | 24km/h | 29590m | 5.3m/s | -45.7°C | 3% | 13.6hPa | 2.6V | 08:30:00 | 02:19:48 | 00:00:00 | |
| DL1XH-west | 2026-09-02 12:58:50 | 58.86871 | 7.22842 | 50° | 18km/h | 29566m | 5.3m/s | -45.8°C | 0% | 0hPa | 2.6V | 18:12:15 | 02:19:44 | 00:00:00 | |
| DL1XH-west | 2026-09-02 12:58:40 | 58.86843 | 7.22789 | 16° | 20km/h | 29499m | 5.6m/s | -45.7°C | 0% | 0hPa | 2.6V | 18:12:15 | 02:19:33 | 00:00:00 | |
| DL1XH1-15 | 2026-09-02 12:58:38 | 58.86825 | 7.22772 | 257° | 2km/h | 29463m | 6m/s | -45.6°C | 3.1% | 13.9hPa | 2.6V | 08:30:00 | 02:19:27 | 00:00:00 | |
| DL1XH1-15 | 2026-09-02 12:58:28 | 58.86804 | 7.22755 | 77° | 13km/h | 29398m | 5.5m/s | -45.5°C | 3.1% | 14hPa | 2.6V | 08:30:00 | 02:19:16 | 00:00:00 | |
| DL1XH-west | 2026-09-02 12:58:27 | 58.86814 | 7.22769 | 16° | 16km/h | 29428m | 6.9m/s | 0°C | 0% | 0hPa | 2.6V | 18:12:15 | 02:19:21 | 00:00:00 | |
| DL1XH1-15 | 2026-09-02 12:58:17 | 58.86794 | 7.22734 | 42° | 11km/h | 29346m | 5.2m/s | -45.4°C | 3.1% | 14.1hPa | 2.6V | 08:30:00 | 02:19:07 | 00:00:00 | |
| DL1XH-west | 2026-09-02 12:58:17 | 58.86801 | 7.22743 | 11° | 7km/h | 29363m | 6.7m/s | 0°C | 0% | 0hPa | 2.6V | 18:12:15 | 02:19:10 | 00:00:00 | |
| DL1XH1-15 | 2026-09-02 12:58:07 | 58.86789 | 7.22720 | 358° | 7km/h | 29287m | 5.4m/s | -45°C | 3% | 14.2hPa | 2.6V | 08:30:00 | 02:18:57 | 00:00:00 | |
| DL1XH1-15 | 2026-09-02 12:57:57 | 58.86788 | 7.22692 | 132° | 5km/h | 29229m | 5m/s | -44.9°C | 2.9% | 14.3hPa | 2.6V | 08:30:00 | 02:18:47 | 00:00:00 | |
| DJ2DS-15 | 2026-09-02 12:55:42 | 58.86729 | 7.21726 | 66° | 26km/h | 28489m | 5.9m/s | -46.1°C | 0.9% | 16.0hPa | 2.6V | 00:00:00 | 00:00:00 | 00:00:00 | |
| DL1XH-west | 2026-09-02 12:54:46 | 58.86594 | 7.21143 | 45° | 18km/h | 28175m | 6.1m/s | 0°C | 0% | 0hPa | 2.6V | 18:12:15 | 02:15:40 | 00:00:00 | |
| DL1XH-west | 2026-09-02 12:54:35 | 58.86559 | 7.21040 | 52° | 22km/h | 28113m | 6.1m/s | 0°C | 0% | 0hPa | 2.5V | 18:12:15 | 02:15:29 | 00:00:00 | |
| DJ2DS-15 | 2026-09-02 12:54:30 | 58.86539 | 7.21010 | 61° | 13km/h | 28079m | 5.8m/s | -47.3°C | 0.9% | 17.0hPa | 2.6V | 00:00:00 | 00:00:00 | 00:00:00 | |
| DL1XH-west | 2026-09-02 12:54:07 | 58.86502 | 7.20877 | 54° | 7km/h | 27944m | 5m/s | 0°C | 0% | 0hPa | 2.6V | 18:12:15 | 02:15:00 | 00:00:00 | |
| DL1XH-west | 2026-09-02 12:53:50 | 58.86468 | 7.20829 | 43° | 15km/h | 27851m | 4.9m/s | 0°C | 0% | 0hPa | 2.6V | 18:12:15 | 02:14:44 | 00:00:00 | |
| DL1XH-west | 2026-09-02 12:53:11 | 58.86421 | 7.20796 | 19° | 4km/h | 27635m | 5.4m/s | 0°C | 0% | 0hPa | 2.6V | 18:12:15 | 02:14:05 | 00:00:00 | |
| DL1XH1-15 | 2026-09-02 12:53:02 | 58.86438 | 7.20806 | 179° | 7km/h | 27557m | 5.5m/s | -48.7°C | 3.5% | 18.4hPa | 2.6V | 08:30:00 | 02:13:51 | 00:00:00 | |
| DL1XH-west | 2026-09-02 12:52:58 | 58.86439 | 7.20806 | 179° | 7km/h | 27557m | 5.5m/s | 0°C | 0% | 0hPa | 2.6V | 18:12:15 | 02:13:51 | 00:00:00 | |
| DL1XH-west | 2026-09-02 12:52:47 | 58.86457 | 7.20803 | 151° | 13km/h | 27495m | 6.5m/s | 0°C | 0% | 0hPa | 2.6V | 18:12:15 | 02:13:40 | 00:00:00 | |
| DL1XH-west | 2026-09-02 12:52:29 | 58.86493 | 7.20766 | 129° | 7km/h | 27398m | 6.2m/s | 0°C | 0% | 0hPa | 2.5V | 18:12:15 | 02:13:23 | 00:00:00 | |
| DL1XH-west | 2026-09-02 12:52:17 | 58.86521 | 7.20738 | 126° | 11km/h | 27325m | 5.5m/s | 0°C | 0% | 0hPa | 2.5V | 18:12:15 | 02:13:10 | 00:00:00 | |
| DL1XH-west | 2026-09-02 12:52:05 | 58.86547 | 7.20692 | 100° | 9km/h | 27258m | 5.4m/s | 0°C | 0% | 0hPa | 2.5V | 18:12:15 | 02:12:58 | 00:00:00 | |
| DL1XH-west | 2026-09-02 12:51:50 | 58.86549 | 7.20649 | 337° | 4km/h | 27174m | 5.8m/s | 0°C | 0% | 0hPa | 2.5V | 18:12:15 | 02:12:43 | 00:00:00 | |
| DL1XH-west | 2026-09-02 12:51:35 | 58.86542 | 7.20625 | 80° | 5km/h | 27089m | 4.9m/s | 0°C | 0% | 0hPa | 2.6V | 18:12:15 | 02:12:28 | 00:00:00 | |
| DJ2DS-15 | 2026-09-02 12:51:29 | 58.86545 | 7.20615 | 162° | 7km/h | 27056m | 5.5m/s | -48.8°C | 1.0% | 19.9hPa | 2.5V | 00:00:00 | 00:00:00 | 00:00:00 | |
| DL1XH-west | 2026-09-02 12:49:39 | 58.86570 | 7.20397 | 80° | 2km/h | 26439m | 4.6m/s | 0°C | 0% | 0hPa | 2.5V | 18:12:15 | 02:10:32 | 00:00:00 | |
| DL1XH-west | 2026-09-02 12:49:22 | 58.86574 | 7.20418 | 219° | 7km/h | 26348m | 5.3m/s | 0°C | 0% | 0hPa | 2.6V | 18:12:15 | 02:10:16 | 00:00:00 | |
| DL1XH-west | 2026-09-02 12:49:07 | 58.86602 | 7.20419 | 147° | 11km/h | 26262m | 6.1m/s | 0°C | 0% | 0hPa | 2.5V | 18:12:15 | 02:10:01 | 00:00:00 | |
| DL1XH-west | 2026-09-02 12:48:50 | 58.86646 | 7.20369 | 157° | 13km/h | 26166m | 5m/s | 0°C | 0% | 0hPa | 2.5V | 18:12:15 | 02:09:44 | 00:00:00 | |
| DL1XH-west | 2026-09-02 12:48:39 | 58.86678 | 7.20336 | 159° | 15km/h | 26098m | 6m/s | 0°C | 0% | 0hPa | 2.6V | 18:12:15 | 02:09:32 | 00:00:00 | |
| DJ2DS-15 | 2026-09-02 12:48:29 | 58.86698 | 7.20332 | 116° | 4km/h | 26043m | 5.6m/s | -49.3°C | 1.0% | 23.2hPa | 2.5V | 00:00:00 | 00:00:00 | 00:00:00 | |
| DJ2DS-15 | 2026-09-02 12:47:53 | 58.86797 | 7.20327 | 153° | 13km/h | 25839m | 4.8m/s | -48.6°C | 1.0% | 23.9hPa | 2.5V | 00:00:00 | 00:00:00 | 00:00:00 | |
| DJ2DS-15 | 2026-09-02 12:46:04 | 58.87154 | 7.19352 | 93° | 22km/h | 25254m | 4.3m/s | -49.2°C | 1.1% | 26.1hPa | 2.5V | 00:00:00 | 00:00:00 | 00:00:00 | |
| DL1XH-west | 2026-09-02 12:45:30 | 58.87113 | 7.18906 | 87° | 24km/h | 25072m | 4.6m/s | -49°C | 0.5% | 26.9hPa | 2.5V | 18:12:15 | 02:06:23 | 00:00:00 | |
| DL1XH-west | 2026-09-02 12:45:00 | 58.87065 | 7.18624 | 75° | 22km/h | 24921m | 4.8m/s | -49.7°C | 0.6% | 27.5hPa | 2.5V | 18:12:15 | 02:05:54 | 00:00:00 | |
| DL1XH1-15 | 2026-09-02 12:44:55 | 58.87055 | 7.18559 | 92° | 26km/h | 24889m | 4.5m/s | -49.7°C | 3.5% | 27.6hPa | 2.5V | 08:30:00 | 02:05:48 | 00:00:00 | |
| DL1XH-west | 2026-09-02 12:44:49 | 58.87059 | 7.18514 | 86° | 16km/h | 24864m | 5.8m/s | -49.8°C | 0.6% | 27.7hPa | 2.5V | 18:12:15 | 02:05:43 | 00:00:00 | |
| DL1XH1-15 | 2026-09-02 12:44:49 | 58.87047 | 7.18466 | 46° | 24km/h | 24837m | 4.9m/s | -50.3°C | 3.7% | 27.8hPa | 2.6V | 08:30:00 | 02:05:38 | 00:00:00 | |
| DL1XH1-15 | 2026-09-02 12:44:39 | 58.87039 | 7.18382 | 88° | 16km/h | 24785m | 4.2m/s | -50.6°C | 3.7% | 28hPa | 2.6V | 08:30:00 | 02:05:28 | 00:00:00 | |
| DL1XH-west | 2026-09-02 12:44:39 | 58.87036 | 7.18421 | 87° | 15km/h | 24811m | 5.8m/s | -50.5°C | 0.7% | 27.9hPa | 2.6V | 18:12:15 | 02:05:33 | 00:00:00 | |
| DL1XH-west | 2026-09-02 12:44:29 | 58.87026 | 7.18332 | 98° | 15km/h | 24727m | 4.6m/s | -50.7°C | 0.8% | 28.3hPa | 2.6V | 18:12:15 | 02:05:17 | 00:00:00 | |
| DL1XH1-15 | 2026-09-02 12:44:28 | 58.87026 | 7.18338 | 90° | 13km/h | 24732m | 6.2m/s | -50.7°C | 3.9% | 28.3hPa | 2.5V | 08:30:00 | 02:05:18 | 00:00:00 | |
| DL1XH-west | 2026-09-02 12:44:17 | 58.87027 | 7.18310 | 69° | 5km/h | 24696m | 5.3m/s | -50.6°C | 0.7% | 28.4hPa | 2.6V | 18:12:15 | 02:05:11 | 00:00:00 | |
| DL1XH1-15 | 2026-09-02 12:44:16 | 58.87022 | 7.18305 | 2° | 9km/h | 24674m | 4.7m/s | -50.5°C | 3.8% | 28.5hPa | 2.5V | 08:30:00 | 02:05:07 | 00:00:00 | |
| DL1XH-west | 2026-09-02 12:44:07 | 58.87010 | 7.18282 | 95° | 9km/h | 24635m | 6.4m/s | -50.4°C | 0.7% | 28.7hPa | 2.5V | 18:12:15 | 02:05:00 | 00:00:00 | |
| DL1XH1-15 | 2026-09-02 12:44:06 | 58.87012 | 7.18270 | 111° | 4km/h | 24618m | 6.4m/s | -50.2°C | 3.7% | 28.8hPa | 2.6V | 08:30:00 | 02:04:57 | 00:00:00 | |
| DL1XH-west | 2026-09-02 12:43:56 | 58.87008 | 7.18251 | 121° | 13km/h | 24563m | 5.1m/s | -50.2°C | 0.6% | 29hPa | 2.6V | 18:12:15 | 02:04:47 | 00:00:00 | |
| DL1XH1-15 | 2026-09-02 12:43:53 | 58.87010 | 7.18246 | 125° | 13km/h | 24558m | 4.7m/s | -50.2°C | 3.6% | 29hPa | 2.6V | 08:30:00 | 02:04:46 | 00:00:00 | |
| DL1XH1-15 | 2026-09-02 12:43:47 | 58.87011 | 7.18226 | 131° | 5km/h | 24498m | 6m/s | -50.4°C | 3.8% | 0hPa | 2.6V | 08:30:00 | 02:04:35 | 00:00:00 | |
| DL1XH-west | 2026-09-02 12:43:44 | 58.87011 | 7.18226 | 325° | 4km/h | 24508m | 4.6m/s | -50.5°C | 0.8% | 29.2hPa | 2.5V | 18:12:15 | 02:04:37 | 00:00:00 | |
| DL1XH1-15 | 2026-09-02 12:43:36 | 58.87021 | 7.18189 | 85° | 4km/h | 24442m | 5.5m/s | -50°C | 0% | 0hPa | 2.5V | 08:30:00 | 02:04:25 | 00:00:00 | |
| DL1XH-west | 2026-09-02 12:43:33 | 58.87021 | 7.18192 | 101° | 7km/h | 24448m | 5.8m/s | -50.1°C | 0.7% | 29.5hPa | 2.5V | 18:12:15 | 02:04:26 | 00:00:00 | |
| DL1XH1-15 | 2026-09-02 12:43:24 | 58.87020 | 7.18149 | 118° | 16km/h | 24387m | 4.1m/s | -50.2°C | 0% | 0hPa | 2.5V | 08:30:00 | 02:04:15 | 00:00:00 | |
| DL1XH-west | 2026-09-02 12:43:21 | 58.87022 | 7.18143 | 124° | 15km/h | 24382m | 5.1m/s | -50.2°C | 0.7% | 29.8hPa | 2.5V | 18:12:15 | 02:04:14 | 00:00:00 | |
| DL1XH1-15 | 2026-09-02 12:43:16 | 58.87029 | 7.18099 | 87° | 9km/h | 24334m | 5m/s | 0°C | 0% | 0hPa | 2.6V | 08:30:00 | 02:04:05 | 00:00:00 | |
| DL1XH-west | 2026-09-02 12:43:10 | 58.87030 | 7.18088 | 109° | 16km/h | 24323m | 5m/s | -49.9°C | 0.6% | 30.1hPa | 2.5V | 18:12:15 | 02:04:03 | 00:00:00 | |
| DL1XH1-15 | 2026-09-02 12:43:05 | 58.87048 | 7.18031 | 115° | 15km/h | 24279m | 6.2m/s | 0°C | 0% | 0hPa | 2.6V | 08:30:00 | 02:03:55 | 00:00:00 | |
| DL1XH-west | 2026-09-02 12:43:00 | 58.87051 | 7.18018 | 106° | 15km/h | 24268m | 4.9m/s | -49.8°C | 0.7% | 30.3hPa | 2.6V | 18:12:15 | 02:03:53 | 00:00:00 | |
| DL1XH1-15 | 2026-09-02 12:42:54 | 58.87072 | 7.17936 | 122° | 20km/h | 24211m | 6.3m/s | 0°C | 0% | 0hPa | 2.6V | 08:30:00 | 02:03:43 | 00:00:00 | |
| DL1XH-west | 2026-09-02 12:42:48 | 58.87074 | 7.17929 | 115° | 16km/h | 24206m | 5.1m/s | -49.4°C | 0.6% | 0hPa | 2.6V | 18:12:15 | 02:03:42 | 00:00:00 | |
| DL1XH1-15 | 2026-09-02 12:42:39 | 58.87090 | 7.17810 | 126° | 24km/h | 24140m | 5.1m/s | 0°C | 0% | 0hPa | 2.6V | 08:30:00 | 02:03:30 | 00:00:00 | |
| DL1XH-west | 2026-09-02 12:42:36 | 58.87090 | 7.17810 | 127° | 24km/h | 24140m | 5.1m/s | -49.5°C | 0.6% | 0hPa | 2.6V | 18:12:15 | 02:03:30 | 00:00:00 | |
| DL1XH1-15 | 2026-09-02 12:42:28 | 58.87106 | 7.17703 | 109° | 27km/h | 24086m | 5.2m/s | 0°C | 0% | 0hPa | 2.6V | 08:30:00 | 02:03:20 | 00:00:00 | |
| DL1XH-west | 2026-09-02 12:42:25 | 58.87110 | 7.17679 | 114° | 27km/h | 24075m | 5m/s | 0°C | 0% | 0hPa | 2.5V | 18:12:15 | 02:03:18 | 00:00:00 | |
| DL1XH1-15 | 2026-09-02 12:42:18 | 58.87120 | 7.17584 | 58° | 18km/h | 24032m | 5.7m/s | 0°C | 0% | 0hPa | 2.6V | 08:30:00 | 02:03:10 | 00:00:00 | |
| DL1XH-west | 2026-09-02 12:42:14 | 58.87116 | 7.17544 | 113° | 16km/h | 24005m | 4.5m/s | 0°C | 0% | 0hPa | 2.5V | 18:12:15 | 02:03:05 | 00:00:00 | |
| DL1XH1-15 | 2026-09-02 12:42:06 | 58.87137 | 7.17486 | 116° | 22km/h | 23972m | 4.3m/s | 0°C | 0% | 0hPa | 2.6V | 08:30:00 | 02:02:59 | 00:00:00 | |
| DL1XH-west | 2026-09-02 12:42:02 | 58.87143 | 7.17447 | 95° | 18km/h | 23950m | 6m/s | 0°C | 0% | 0hPa | 2.5V | 18:12:15 | 02:02:55 | 00:00:00 | |
| DL1XH-west | 2026-09-02 12:41:44 | 58.87158 | 7.17320 | 82° | 18km/h | 23859m | 5.6m/s | 0°C | 0% | 0hPa | 2.5V | 18:12:15 | 02:02:38 | 00:00:00 | |
| DL1XH1-15 | 2026-09-02 12:41:41 | 58.87159 | 7.17283 | 110° | 13km/h | 23831m | 6.1m/s | 0°C | 0% | 0hPa | 2.6V | 08:30:00 | 02:02:33 | 00:00:00 | |
| DL1XH-west | 2026-09-02 12:41:33 | 58.87163 | 7.17229 | 89° | 11km/h | 23782m | 6.2m/s | 0°C | 0% | 0hPa | 2.6V | 18:12:15 | 02:02:24 | 00:00:00 | |
| DL1XH1-15 | 2026-09-02 12:41:30 | 58.87164 | 7.17224 | 96° | 9km/h | 23776m | 5.5m/s | 0°C | 0% | 0hPa | 2.6V | 00:00:00 | 02:02:23 | 00:00:00 | |
| DL1XH-west | 2026-09-02 12:41:23 | 58.87169 | 7.17198 | 101° | 11km/h | 23737m | 6.2m/s | 0°C | 0% | 0hPa | 2.5V | 18:12:15 | 02:02:16 | 00:00:00 | |
| DL1XH-west | 2026-09-02 12:41:12 | 58.87173 | 7.17152 | 166° | 7km/h | 23682m | 5.2m/s | 0°C | 0% | 0hPa | 2.6V | 18:12:15 | 02:02:06 | 00:00:00 | |
| DL1XH-west | 2026-09-02 12:41:00 | 58.87188 | 7.17120 | 157° | 13km/h | 23605m | 5.2m/s | 0°C | 0% | 0hPa | 2.5V | 18:12:15 | 02:01:52 | 00:00:00 | |
| DL1XH-west | 2026-09-02 12:40:49 | 58.87192 | 7.17094 | 201° | 2km/h | 23555m | 5.2m/s | 0°C | 0% | 0hPa | 2.6V | 18:12:15 | 02:01:43 | 00:00:00 | |
| DL1XH-west | 2026-09-02 12:40:39 | 58.87213 | 7.17079 | 69° | 11km/h | 23498m | 5.2m/s | 0°C | 0% | 0hPa | 2.6V | 18:12:15 | 02:01:33 | 00:00:00 | |
| DL1XH-west | 2026-09-02 12:40:28 | 58.87229 | 7.17055 | 133° | 11km/h | 23432m | 5.7m/s | 0°C | 0% | 0hPa | 2.6V | 18:12:15 | 02:01:21 | 00:00:00 |